createdAt,value
2023-11-05T00:00:51.806Z,4.04
2023-11-05T00:03:47.384Z,3.6199999999999997
2023-11-05T00:06:42.943Z,3.7600000000000002
2023-11-05T00:12:44.031Z,4.16
2023-11-05T00:15:40.581Z,4.42
2023-11-05T00:18:37.161Z,3.44
2023-11-05T00:21:33.676Z,3.84
2023-11-05T00:24:29.276Z,4.1
2023-11-05T00:27:24.799Z,4.260000000000001
2023-11-05T00:30:20.353Z,3.4200000000000004
2023-11-05T00:33:17.067Z,3.62
2023-11-05T00:36:12.564Z,4.119999999999999
2023-11-05T00:39:09.059Z,3.7
2023-11-05T00:42:05.609Z,3.9200000000000004
2023-11-05T00:45:01.166Z,4.14
2023-11-05T00:47:57.826Z,3.8
2023-11-05T00:50:53.311Z,3.9799999999999995
2023-11-05T00:53:48.862Z,4.0200000000000005
2023-11-05T00:56:44.421Z,4.08
2023-11-05T00:59:40.018Z,3.72
2023-11-05T01:02:38.658Z,3.9
2023-11-05T01:05:35.080Z,4.040000000000001
2023-11-05T01:08:30.633Z,2.94
2023-11-05T01:11:26.250Z,3.8199999999999994
2023-11-05T01:14:22.793Z,3.7
2023-11-05T01:17:22.023Z,3.5
2023-11-05T01:20:17.882Z,3.1800000000000006
2023-11-05T01:23:13.415Z,4.12
2023-11-05T01:26:08.956Z,3.9
2023-11-05T01:29:05.567Z,4.32
2023-11-05T01:32:01.185Z,2.96
2023-11-05T01:34:56.675Z,3.54
2023-11-05T01:37:52.319Z,3.38
2023-11-05T01:40:47.919Z,4.5600000000000005
2023-11-05T01:43:43.347Z,3.5799999999999996
2023-11-05T01:46:38.963Z,3.38
2023-11-05T01:49:34.517Z,3.8200000000000003
2023-11-05T01:52:31.050Z,3.4200000000000004
2023-11-05T01:55:28.618Z,3.2
2023-11-05T01:58:28.896Z,3.5
2023-11-05T02:01:25.746Z,3.22
2023-11-05T02:04:21.421Z,2.94
2023-11-05T02:07:17.855Z,3.2
2023-11-05T02:10:16.426Z,2.2600000000000002
2023-11-05T02:13:12.097Z,2.5
2023-11-05T02:16:08.559Z,2.96
2023-11-05T02:19:05.128Z,2.38
2023-11-05T02:22:11.653Z,2.7800000000000002
2023-11-05T02:28:12.718Z,3.1799999999999997
2023-11-05T02:31:09.289Z,2.72
2023-11-05T02:34:05.946Z,3.4799999999999995
2023-11-05T02:37:01.399Z,2.2399999999999998
2023-11-05T02:39:57.937Z,3
2023-11-05T02:42:53.490Z,3.2800000000000002
2023-11-05T02:48:54.687Z,2.62
2023-11-05T02:51:53.156Z,2.7400000000000007
2023-11-05T02:54:48.765Z,2.22
2023-11-05T02:57:44.306Z,2.24
2023-11-05T03:00:44.856Z,2.4
2023-11-05T03:03:41.432Z,2.3
2023-11-05T03:06:37.934Z,2.0799999999999996
2023-11-05T03:09:34.507Z,1.7599999999999998
2023-11-05T03:12:31.069Z,2.7
2023-11-05T03:18:37.223Z,2.3
2023-11-05T03:21:32.757Z,2.6199999999999997
2023-11-05T03:24:29.294Z,1.98
2023-11-05T03:27:25.818Z,3.04
2023-11-05T03:30:22.402Z,2.3
2023-11-05T03:33:17.981Z,2.2399999999999998
2023-11-05T03:36:13.474Z,2.6
2023-11-05T03:39:10.078Z,2.1800000000000006
2023-11-05T03:42:08.631Z,2.8200000000000003
2023-11-05T03:45:05.259Z,3.1
2023-11-05T03:48:00.816Z,3.38
2023-11-05T03:50:56.305Z,3.7400000000000007
2023-11-05T03:53:51.852Z,5.119999999999999
2023-11-05T03:56:48.412Z,4.340000000000001
2023-11-05T03:59:44.984Z,4.06
2023-11-05T04:02:40.581Z,4.0200000000000005
2023-11-05T04:05:37.181Z,3.8200000000000003
2023-11-05T04:08:33.704Z,4.04
2023-11-05T04:11:30.224Z,2.8000000000000003
2023-11-05T04:14:26.786Z,2.2399999999999998
2023-11-05T04:17:22.330Z,1.6199999999999999
2023-11-05T04:20:17.916Z,2.02
2023-11-05T04:23:17.463Z,2.54
2023-11-05T04:26:14.994Z,2.7400000000000007
2023-11-05T04:29:11.599Z,2.1
2023-11-05T04:32:08.134Z,3.38
2023-11-05T04:35:05.741Z,2.0800000000000005
2023-11-05T04:38:01.267Z,2.16
2023-11-05T04:40:56.809Z,2.4
2023-11-05T04:43:52.397Z,2.3
2023-11-05T04:46:47.942Z,3
2023-11-05T04:49:44.531Z,2.38
2023-11-05T04:52:40.078Z,2.8
2023-11-05T04:55:35.744Z,2.94
2023-11-05T05:01:37.771Z,2.44
2023-11-05T05:04:33.331Z,2.3600000000000003
2023-11-05T05:07:28.861Z,1.56
2023-11-05T05:10:24.444Z,2.2600000000000002
2023-11-05T05:13:19.979Z,1.7399999999999998
2023-11-05T05:16:17.598Z,1.8
2023-11-05T05:19:13.140Z,1.3
2023-11-05T05:22:14.615Z,1.8
2023-11-05T05:25:11.265Z,1.86
2023-11-05T05:28:07.752Z,1.98
2023-11-05T05:31:03.269Z,1.8800000000000001
2023-11-05T05:33:58.839Z,1.4
2023-11-05T05:36:54.396Z,1.3
2023-11-05T05:39:50.051Z,1.78
2023-11-05T05:42:46.573Z,1.1
2023-11-05T05:45:46.089Z,1.1600000000000001
2023-11-05T05:48:41.669Z,1.26
2023-11-05T05:51:40.199Z,1.92
2023-11-05T05:54:37.741Z,1.2600000000000002
2023-11-05T05:57:34.306Z,1.78
2023-11-05T06:00:30.881Z,1.6
2023-11-05T06:03:26.463Z,1.3800000000000001
2023-11-05T06:06:25.189Z,1.5000000000000002
2023-11-05T06:09:23.542Z,1.4
2023-11-05T06:12:20.142Z,0.9199999999999999
2023-11-05T06:15:15.674Z,1.06
2023-11-05T06:18:12.305Z,1.02
2023-11-05T06:21:07.818Z,1.02
2023-11-05T06:24:03.357Z,1.28
2023-11-05T06:26:58.928Z,1.2
2023-11-05T06:29:57.443Z,0.9800000000000001
2023-11-05T06:32:53.097Z,1.8
2023-11-05T06:35:49.590Z,1.2
2023-11-05T06:38:45.141Z,2.12
2023-11-05T06:41:40.697Z,1.2399999999999998
2023-11-05T06:44:36.277Z,1.3
2023-11-05T06:47:31.998Z,1
2023-11-05T06:50:28.449Z,0.9
2023-11-05T06:53:23.951Z,0.8
2023-11-05T06:56:19.523Z,0.64
2023-11-05T06:59:16.060Z,0.54
2023-11-05T07:02:11.908Z,0.64
2023-11-05T07:05:08.282Z,0.52
2023-11-05T07:08:03.740Z,0.78
2023-11-05T07:11:02.312Z,0.6599999999999999
2023-11-05T07:13:59.862Z,0.9400000000000001
2023-11-05T07:16:56.423Z,0.82
2023-11-05T07:19:51.994Z,0.9199999999999999
2023-11-05T07:22:48.557Z,0.9
2023-11-05T07:25:45.172Z,2.2
2023-11-05T07:28:40.705Z,2.1
2023-11-05T07:31:38.211Z,2.8
2023-11-05T07:34:33.849Z,2.2
2023-11-05T07:37:29.375Z,1.4
2023-11-05T07:40:25.997Z,1.08
2023-11-05T07:43:21.471Z,1.1800000000000002
2023-11-05T07:46:18.071Z,1.1600000000000001
2023-11-05T07:49:13.590Z,1.4599999999999997
2023-11-05T07:52:10.161Z,1.08
2023-11-05T07:55:06.723Z,1.1400000000000001
2023-11-05T07:58:02.313Z,1.6800000000000002
2023-11-05T08:00:57.823Z,1.1800000000000002
2023-11-05T08:03:55.399Z,1.56
2023-11-05T08:06:52.130Z,0.9400000000000001
2023-11-05T08:09:48.505Z,0.8
2023-11-05T08:12:45.052Z,1
2023-11-05T08:15:44.610Z,0.82
2023-11-05T08:18:40.292Z,1.3400000000000003
2023-11-05T08:21:36.741Z,0.9199999999999999
2023-11-05T08:27:39.801Z,1.3800000000000001
2023-11-05T08:30:35.405Z,0.9800000000000001
2023-11-05T08:36:39.501Z,0.9800000000000001
2023-11-05T08:39:36.033Z,1.38
2023-11-05T08:42:31.643Z,1.28
2023-11-05T08:45:31.899Z,0.96
2023-11-05T08:48:27.703Z,1.2200000000000002
2023-11-05T08:51:26.438Z,0.9800000000000001
2023-11-05T08:54:21.825Z,1.48
2023-11-05T08:57:18.392Z,1.94
2023-11-05T09:00:14.065Z,1.26
2023-11-05T09:03:09.535Z,1.06
2023-11-05T09:06:06.100Z,0.9600000000000002
2023-11-05T09:09:01.598Z,1.28
2023-11-05T09:11:58.184Z,0.8
2023-11-05T09:14:53.733Z,0.86
2023-11-05T09:17:49.383Z,1.1800000000000002
2023-11-05T09:20:46.876Z,1.28
2023-11-05T09:23:42.409Z,2.6399999999999997
2023-11-05T09:26:38.968Z,1.2
2023-11-05T09:29:34.540Z,1
2023-11-05T09:35:37.610Z,1.52
2023-11-05T09:38:35.202Z,1.58
2023-11-05T09:41:33.758Z,1.7399999999999998
2023-11-05T09:44:29.300Z,1.6800000000000002
2023-11-05T09:47:25.866Z,1.6400000000000001
2023-11-05T09:50:25.394Z,1.6600000000000001
2023-11-05T09:53:21.954Z,1.9
2023-11-05T09:56:18.616Z,1.78
2023-11-05T09:59:15.145Z,1.8400000000000003
2023-11-05T10:02:12.620Z,1.8
2023-11-05T10:05:08.303Z,2.5
2023-11-05T10:08:05.763Z,1.54
2023-11-05T10:11:01.304Z,1.7600000000000002
2023-11-05T10:13:58.859Z,1.92
2023-11-05T10:16:59.456Z,1.94
2023-11-05T10:19:55.015Z,2.22
2023-11-05T10:22:56.543Z,1.52
2023-11-05T10:25:57.269Z,1.4
2023-11-05T10:28:54.628Z,1.1800000000000002
2023-11-05T10:31:52.240Z,1.22
2023-11-05T10:34:51.754Z,1.28
2023-11-05T10:37:49.453Z,1.42
2023-11-05T10:40:47.925Z,1.3400000000000003
2023-11-05T10:43:46.463Z,0.9
2023-11-05T10:46:46.003Z,1.3800000000000001
2023-11-05T10:49:43.545Z,1.2600000000000002
2023-11-05T10:55:43.046Z,0.9800000000000001
2023-11-05T10:58:41.283Z,1.2
2023-11-05T11:01:38.010Z,1.1400000000000001
2023-11-05T11:07:44.887Z,1.5
2023-11-05T11:10:43.394Z,2.1399999999999997
2023-11-05T11:13:50.019Z,0.8800000000000001
2023-11-05T11:16:51.462Z,1.22
2023-11-05T11:19:52.098Z,2.2800000000000002
2023-11-05T11:22:49.566Z,3.1
2023-11-05T11:25:58.138Z,2.8400000000000003
2023-11-05T11:28:58.666Z,2.06
2023-11-05T11:31:55.242Z,1.9799999999999998
2023-11-05T11:34:53.833Z,3.14
2023-11-05T11:37:49.324Z,2.2800000000000002
2023-11-05T11:40:50.915Z,2.88
2023-11-05T11:43:48.420Z,4.4799999999999995
2023-11-05T11:46:46.003Z,5.26
2023-11-05T11:49:44.553Z,8.620000000000001
2023-11-05T11:52:47.111Z,10.559999999999999
2023-11-05T11:55:42.735Z,10.86
2023-11-05T11:58:42.493Z,8.919999999999998
2023-11-05T12:01:44.768Z,7.660000000000001
2023-11-05T12:04:40.371Z,4.159999999999999
2023-11-05T12:07:43.902Z,3.6399999999999997
2023-11-05T12:10:43.370Z,4.04
2023-11-05T12:13:41.956Z,2.8600000000000003
2023-11-05T12:16:41.520Z,2.72
2023-11-05T12:19:40.064Z,4.28
2023-11-05T12:22:37.649Z,3.1199999999999997
2023-11-05T12:25:34.210Z,2.9799999999999995
2023-11-05T12:28:30.852Z,3.8400000000000007
2023-11-05T12:31:29.357Z,1.7
2023-11-05T12:34:26.942Z,1.42
2023-11-05T12:37:24.356Z,2.4
2023-11-05T12:40:20.053Z,1.86
2023-11-05T12:43:16.509Z,2.6800000000000006
2023-11-05T12:46:13.067Z,1.72
2023-11-05T12:49:08.792Z,1.7600000000000002
2023-11-05T12:52:06.209Z,2.06
2023-11-05T12:55:05.716Z,0.6799999999999999
2023-11-05T12:58:03.295Z,2.7600000000000002
2023-11-05T13:00:59.932Z,2.16
2023-11-05T13:03:55.705Z,3.8
2023-11-05T13:06:56.968Z,5.08
2023-11-05T13:09:52.810Z,4.36
2023-11-05T13:12:48.082Z,6.08
2023-11-05T13:15:45.629Z,5
2023-11-05T13:18:42.246Z,4
2023-11-05T13:21:38.745Z,5.4399999999999995
2023-11-05T13:24:35.323Z,3.5800000000000005
2023-11-05T13:27:30.875Z,3.28
2023-11-05T13:30:26.483Z,2.48
2023-11-05T13:33:23.111Z,1.02
2023-11-05T13:36:19.535Z,1.8199999999999998
2023-11-05T13:39:15.116Z,3.1399999999999997
2023-11-05T13:42:11.722Z,2.06
2023-11-05T13:45:09.219Z,2.9
2023-11-05T13:48:06.849Z,2.26
2023-11-05T13:51:03.334Z,3.22
2023-11-05T13:53:58.963Z,3.7600000000000002
2023-11-05T13:56:58.436Z,4.16
2023-11-05T13:59:55.003Z,3.88
2023-11-05T14:02:50.612Z,2.32
2023-11-05T14:05:47.215Z,2.74
2023-11-05T14:08:42.678Z,2.2600000000000002
2023-11-05T14:11:45.038Z,2.4
2023-11-05T14:14:44.774Z,2.0799999999999996
2023-11-05T14:17:42.417Z,2.6599999999999997
2023-11-05T14:20:43.880Z,2.7399999999999998
2023-11-05T14:23:46.420Z,2.5599999999999996
2023-11-05T14:26:43.015Z,4.88
2023-11-05T14:29:39.571Z,6.5200000000000005
2023-11-05T14:32:36.141Z,9.18
2023-11-05T14:35:35.688Z,2.6
2023-11-05T14:38:32.215Z,2.3
2023-11-05T14:41:32.776Z,4.98
2023-11-05T14:44:30.447Z,3.1
2023-11-05T14:47:27.928Z,4.3
2023-11-05T14:50:23.439Z,5.819999999999999
2023-11-05T14:53:19.992Z,2.42
2023-11-05T14:56:15.546Z,2.66
2023-11-05T14:59:13.122Z,1.36
2023-11-05T15:02:08.689Z,1.9
2023-11-05T15:05:10.357Z,2.4
2023-11-05T15:08:12.832Z,2.92
2023-11-05T15:11:09.352Z,3.2600000000000002
2023-11-05T15:14:05.947Z,2.3
2023-11-05T15:17:05.465Z,2.86
2023-11-05T15:20:11.046Z,2.2
2023-11-05T15:23:06.677Z,3.8200000000000003
2023-11-05T15:26:04.156Z,5.1
2023-11-05T15:29:02.328Z,4.18
2023-11-05T15:32:02.256Z,5.159999999999999
2023-11-05T15:38:13.996Z,9.16
2023-11-05T15:41:12.789Z,12.2
2023-11-05T15:44:15.390Z,21.88
2023-11-05T15:47:14.934Z,20.740000000000002
2023-11-05T15:50:15.456Z,15.38
2023-11-05T15:53:12.035Z,13.62
2023-11-05T15:56:09.682Z,13.940000000000001
2023-11-05T15:59:11.143Z,13.98
2023-11-05T16:02:08.772Z,16.3
2023-11-05T16:05:11.528Z,17.9
2023-11-05T16:08:06.839Z,28.68
2023-11-05T16:11:07.495Z,28.919999999999998
2023-11-05T16:14:09.961Z,23.24
2023-11-05T16:17:05.451Z,16.28
2023-11-05T16:20:02.056Z,31.04
2023-11-05T16:23:03.613Z,42.739999999999995
2023-11-05T16:25:59.147Z,44.980000000000004
2023-11-05T16:29:06.164Z,56.5
2023-11-05T16:35:09.842Z,23.04
2023-11-05T16:38:06.362Z,26.939999999999998
2023-11-05T16:41:01.958Z,26.860000000000003
2023-11-05T16:44:01.749Z,29.080000000000002
2023-11-05T16:46:59.990Z,20.24
2023-11-05T16:50:06.673Z,19.76
2023-11-05T16:53:06.071Z,45.36
2023-11-05T16:56:03.661Z,34.540000000000006
2023-11-05T16:59:01.208Z,43.5
2023-11-05T17:01:59.754Z,114.06000000000002
2023-11-05T17:04:56.342Z,66.99999999999999
2023-11-05T17:07:52.866Z,94.78
2023-11-05T17:10:53.489Z,59.6
2023-11-05T17:13:54.996Z,45
2023-11-05T17:16:57.091Z,28.48
2023-11-05T17:19:59.102Z,40.64
2023-11-05T17:22:57.628Z,33.660000000000004
2023-11-05T17:26:08.200Z,74.47999999999999
2023-11-05T17:29:09.715Z,27.8
2023-11-05T17:32:12.226Z,8.8
2023-11-05T17:35:12.806Z,4.82
2023-11-05T17:38:14.323Z,6.859999999999999
2023-11-05T17:41:22.841Z,14.34
2023-11-05T17:44:23.396Z,46.080000000000005
2023-11-05T17:47:18.974Z,6.720000000000001
2023-11-05T17:50:20.536Z,7.3
2023-11-05T17:53:21.017Z,9.72
2023-11-05T17:56:26.487Z,9.559999999999999
2023-11-05T17:59:30.110Z,6.640000000000001
2023-11-05T18:02:31.729Z,6.44
2023-11-05T18:05:34.267Z,5.9
2023-11-05T18:08:37.773Z,6.04
2023-11-05T18:11:41.312Z,10.86
2023-11-05T18:14:42.846Z,11.98
2023-11-05T18:20:58.056Z,35.3
2023-11-05T18:24:03.446Z,31.76
2023-11-05T18:27:13.952Z,23.6
2023-11-05T18:33:25.070Z,8.7
2023-11-05T18:36:27.144Z,5.44
2023-11-05T18:39:29.093Z,7.279999999999999
2023-11-05T18:42:29.678Z,8.360000000000001
2023-11-05T18:45:26.211Z,20.4
2023-11-05T18:48:27.568Z,4.659999999999999
2023-11-05T18:51:29.344Z,3.02
2023-11-05T18:57:44.500Z,1.8199999999999998
2023-11-05T19:00:47.921Z,1.36
2023-11-05T19:03:51.609Z,1.8
2023-11-05T19:06:48.991Z,2.54
2023-11-05T19:09:46.580Z,3.46
2023-11-05T19:12:48.136Z,5.1
2023-11-05T19:15:44.684Z,4.2
2023-11-05T19:18:45.250Z,5.9799999999999995
2023-11-05T19:21:50.257Z,7.94
2023-11-05T19:24:48.340Z,6.16
2023-11-05T19:27:49.860Z,8.5
2023-11-05T19:30:51.425Z,6.4799999999999995
2023-11-05T19:33:53.339Z,3.16
2023-11-05T19:36:49.534Z,2.66
2023-11-05T19:39:56.802Z,2.5
2023-11-05T19:42:59.570Z,6.14
2023-11-05T19:45:56.780Z,7.94
2023-11-05T19:48:56.952Z,4.6
2023-11-05T19:51:58.276Z,4.86
2023-11-05T19:55:00.797Z,3.9799999999999995
2023-11-05T19:58:05.130Z,2.8200000000000003
2023-11-05T20:01:06.880Z,1.56
2023-11-05T20:04:04.500Z,2.0599999999999996
2023-11-05T20:07:02.989Z,3.56
2023-11-05T20:09:59.552Z,3.8599999999999994
2023-11-05T20:12:57.315Z,3.8600000000000003
2023-11-05T20:15:55.662Z,3.6799999999999997
2023-11-05T20:18:52.346Z,3.3600000000000003
2023-11-05T20:21:53.754Z,4.0200000000000005
2023-11-05T20:24:50.330Z,4.340000000000001
2023-11-05T20:27:48.896Z,3.9
2023-11-05T20:30:45.474Z,3.18
2023-11-05T20:33:41.996Z,2.88
2023-11-05T20:36:41.874Z,2.8000000000000003
2023-11-05T20:39:41.161Z,3.4
2023-11-05T20:42:37.668Z,3.12
2023-11-05T20:45:34.275Z,3.8600000000000003
2023-11-05T20:48:31.844Z,4.720000000000001
2023-11-05T20:51:29.338Z,3.66
2023-11-05T20:54:25.892Z,2.74
2023-11-05T20:57:22.477Z,3.1399999999999997
2023-11-05T21:00:26.002Z,3.2
2023-11-05T21:03:22.784Z,2.7600000000000002
2023-11-05T21:06:20.126Z,3.66
2023-11-05T21:09:16.658Z,4.040000000000001
2023-11-05T21:12:14.216Z,4.540000000000001
2023-11-05T21:15:10.791Z,4.96
2023-11-05T21:18:09.379Z,4.68
2023-11-05T21:21:05.948Z,3.94
2023-11-05T21:24:03.451Z,4.18
2023-11-05T21:26:59.024Z,4.1
2023-11-05T21:29:56.572Z,4.540000000000001
2023-11-05T21:32:54.192Z,4.2
2023-11-05T21:35:54.667Z,3.78
2023-11-05T21:38:53.297Z,3.6399999999999997
2023-11-05T21:41:52.868Z,3.44
2023-11-05T21:44:51.352Z,4.68
2023-11-05T21:47:48.090Z,3.3600000000000003
2023-11-05T21:50:44.437Z,3.3600000000000003
2023-11-05T21:53:47.108Z,3.4800000000000004
2023-11-05T21:56:43.534Z,3
2023-11-05T21:59:39.126Z,3.4800000000000004
2023-11-05T22:02:39.738Z,3.2600000000000002
2023-11-05T22:05:36.402Z,3.9799999999999995
2023-11-05T22:08:33.779Z,3.8200000000000003
2023-11-05T22:11:30.327Z,4.159999999999999
2023-11-05T22:14:28.889Z,3.72
2023-11-05T22:17:25.461Z,3.9
2023-11-05T22:20:22.050Z,2.5
2023-11-05T22:23:20.636Z,2.8
2023-11-05T22:26:16.147Z,2.46
2023-11-05T22:29:12.736Z,2.12
2023-11-05T22:32:09.305Z,1.98
2023-11-05T22:35:06.004Z,2.0599999999999996
2023-11-05T22:38:06.377Z,2.48
2023-11-05T22:41:07.011Z,2.42
2023-11-05T22:44:02.501Z,2.6
2023-11-05T22:47:04.026Z,2.88
2023-11-05T22:50:06.588Z,2.6399999999999997
2023-11-05T22:53:02.240Z,4
2023-11-05T22:55:57.706Z,2.98
2023-11-05T22:58:54.319Z,2.5599999999999996
2023-11-05T23:01:50.790Z,2.5799999999999996
2023-11-05T23:04:46.413Z,2.36
2023-11-05T23:07:41.903Z,2.48
2023-11-05T23:10:37.484Z,2.72
2023-11-05T23:16:39.581Z,2.2
2023-11-05T23:19:36.133Z,2.62
2023-11-05T23:22:31.689Z,2.48
2023-11-05T23:25:35.441Z,2.5200000000000005
2023-11-05T23:28:30.785Z,2.1199999999999997
2023-11-05T23:31:26.352Z,2.36
2023-11-05T23:34:21.983Z,2.3400000000000003
2023-11-05T23:37:17.482Z,2.16
2023-11-05T23:40:13.083Z,2
2023-11-05T23:43:10.587Z,2.4
2023-11-05T23:46:07.232Z,2.2600000000000002
2023-11-05T23:49:02.752Z,2.04
2023-11-05T23:52:00.278Z,2.54
2023-11-05T23:54:56.819Z,2.56
2023-11-05T23:57:52.437Z,2.54
